sensor_id;sensor_type;location;lat;lon;timestamp;temperature;humidity
16273;DHT22;8244;50.044;9.006;2022-11-02T00:01:14;8.70;99.90
16273;DHT22;8244;50.044;9.006;2022-11-02T00:06:19;8.60;99.90
16273;DHT22;8244;50.044;9.006;2022-11-02T00:11:20;8.60;99.90
16273;DHT22;8244;50.044;9.006;2022-11-02T00:16:24;8.60;99.90
16273;DHT22;8244;50.044;9.006;2022-11-02T00:21:26;8.60;99.90
16273;DHT22;8244;50.044;9.006;2022-11-02T00:26:28;8.60;99.90
16273;DHT22;8244;50.044;9.006;2022-11-02T00:31:32;8.60;99.90
16273;DHT22;8244;50.044;9.006;2022-11-02T00:36:33;8.60;99.90
16273;DHT22;8244;50.044;9.006;2022-11-02T00:41:35;8.60;99.90
16273;DHT22;8244;50.044;9.006;2022-11-02T00:46:38;8.60;99.90
16273;DHT22;8244;50.044;9.006;2022-11-02T00:51:39;8.50;99.90
16273;DHT22;8244;50.044;9.006;2022-11-02T00:56:42;8.50;99.90
16273;DHT22;8244;50.044;9.006;2022-11-02T01:01:45;8.60;99.90
16273;DHT22;8244;50.044;9.006;2022-11-02T01:06:48;8.60;99.90
16273;DHT22;8244;50.044;9.006;2022-11-02T01:11:50;8.60;99.90
16273;DHT22;8244;50.044;9.006;2022-11-02T01:16:53;8.50;99.90
16273;DHT22;8244;50.044;9.006;2022-11-02T01:21:57;8.60;99.90
16273;DHT22;8244;50.044;9.006;2022-11-02T01:26:58;8.50;99.90
16273;DHT22;8244;50.044;9.006;2022-11-02T01:32:01;8.60;99.90
16273;DHT22;8244;50.044;9.006;2022-11-02T01:37:03;8.60;99.90
16273;DHT22;8244;50.044;9.006;2022-11-02T01:42:16;8.60;99.90
16273;DHT22;8244;50.044;9.006;2022-11-02T01:47:22;8.60;99.90
16273;DHT22;8244;50.044;9.006;2022-11-02T01:52:29;8.60;99.90
16273;DHT22;8244;50.044;9.006;2022-11-02T01:57:32;8.60;99.90
16273;DHT22;8244;50.044;9.006;2022-11-02T02:02:41;8.60;99.90
16273;DHT22;8244;50.044;9.006;2022-11-02T02:07:44;8.60;99.90
16273;DHT22;8244;50.044;9.006;2022-11-02T02:12:47;8.60;99.90
16273;DHT22;8244;50.044;9.006;2022-11-02T02:17:54;8.60;99.90
16273;DHT22;8244;50.044;9.006;2022-11-02T02:23:12;8.70;99.90
16273;DHT22;8244;50.044;9.006;2022-11-02T02:28:30;8.70;99.90
16273;DHT22;8244;50.044;9.006;2022-11-02T02:33:38;8.80;99.90
16273;DHT22;8244;50.044;9.006;2022-11-02T02:38:46;8.80;99.90
16273;DHT22;8244;50.044;9.006;2022-11-02T02:43:52;8.80;99.90
16273;DHT22;8244;50.044;9.006;2022-11-02T02:48:56;8.80;99.90
16273;DHT22;8244;50.044;9.006;2022-11-02T02:54:02;8.70;99.90
16273;DHT22;8244;50.044;9.006;2022-11-02T02:59:07;8.70;99.90
16273;DHT22;8244;50.044;9.006;2022-11-02T03:04:13;8.70;99.90
16273;DHT22;8244;50.044;9.006;2022-11-02T03:09:18;8.70;99.90
16273;DHT22;8244;50.044;9.006;2022-11-02T03:14:31;8.70;99.90
16273;DHT22;8244;50.044;9.006;2022-11-02T03:19:47;8.70;99.90
16273;DHT22;8244;50.044;9.006;2022-11-02T03:24:54;8.70;99.90
16273;DHT22;8244;50.044;9.006;2022-11-02T03:30:04;8.80;99.90
16273;DHT22;8244;50.044;9.006;2022-11-02T03:35:15;8.80;99.90
16273;DHT22;8244;50.044;9.006;2022-11-02T03:40:19;8.80;99.90
16273;DHT22;8244;50.044;9.006;2022-11-02T03:45:30;8.80;99.90
16273;DHT22;8244;50.044;9.006;2022-11-02T03:50:38;8.80;99.90
16273;DHT22;8244;50.044;9.006;2022-11-02T03:55:46;8.80;99.90
16273;DHT22;8244;50.044;9.006;2022-11-02T04:00:53;8.80;99.90
16273;DHT22;8244;50.044;9.006;2022-11-02T04:05:55;8.80;99.90
16273;DHT22;8244;50.044;9.006;2022-11-02T04:10:57;8.70;99.90
16273;DHT22;8244;50.044;9.006;2022-11-02T04:16:18;8.80;99.90
16273;DHT22;8244;50.044;9.006;2022-11-02T04:21:20;8.80;99.90
16273;DHT22;8244;50.044;9.006;2022-11-02T04:26:22;8.90;99.90
16273;DHT22;8244;50.044;9.006;2022-11-02T04:31:25;9.00;99.90
16273;DHT22;8244;50.044;9.006;2022-11-02T04:36:28;9.10;99.90
16273;DHT22;8244;50.044;9.006;2022-11-02T04:41:30;9.20;99.90
16273;DHT22;8244;50.044;9.006;2022-11-02T04:46:45;9.30;99.90
16273;DHT22;8244;50.044;9.006;2022-11-02T04:51:47;9.30;99.90
16273;DHT22;8244;50.044;9.006;2022-11-02T04:56:48;9.40;99.90
16273;DHT22;8244;50.044;9.006;2022-11-02T05:01:51;9.50;99.90
16273;DHT22;8244;50.044;9.006;2022-11-02T05:06:53;9.50;99.90
16273;DHT22;8244;50.044;9.006;2022-11-02T05:11:54;9.60;99.90
16273;DHT22;8244;50.044;9.006;2022-11-02T05:16:57;9.60;99.90
16273;DHT22;8244;50.044;9.006;2022-11-02T05:21:59;9.70;99.90
16273;DHT22;8244;50.044;9.006;2022-11-02T05:27:01;9.70;99.90
16273;DHT22;8244;50.044;9.006;2022-11-02T05:32:04;9.70;99.90
16273;DHT22;8244;50.044;9.006;2022-11-02T05:37:05;9.70;99.90
16273;DHT22;8244;50.044;9.006;2022-11-02T05:42:07;9.70;99.90
16273;DHT22;8244;50.044;9.006;2022-11-02T05:47:10;9.70;99.90
16273;DHT22;8244;50.044;9.006;2022-11-02T05:52:12;9.70;99.90
16273;DHT22;8244;50.044;9.006;2022-11-02T05:57:13;9.60;99.90
16273;DHT22;8244;50.044;9.006;2022-11-02T06:02:17;9.50;99.90
16273;DHT22;8244;50.044;9.006;2022-11-02T06:07:19;9.50;99.90
16273;DHT22;8244;50.044;9.006;2022-11-02T06:12:21;9.40;99.90
16273;DHT22;8244;50.044;9.006;2022-11-02T06:17:24;9.40;99.90
16273;DHT22;8244;50.044;9.006;2022-11-02T06:22:25;9.30;99.90
16273;DHT22;8244;50.044;9.006;2022-11-02T06:27:27;9.30;99.90
16273;DHT22;8244;50.044;9.006;2022-11-02T06:32:30;9.30;99.90
16273;DHT22;8244;50.044;9.006;2022-11-02T06:37:32;9.40;99.90
16273;DHT22;8244;50.044;9.006;2022-11-02T06:42:35;9.50;99.90
16273;DHT22;8244;50.044;9.006;2022-11-02T06:47:38;9.50;99.90
16273;DHT22;8244;50.044;9.006;2022-11-02T06:52:41;9.60;99.90
16273;DHT22;8244;50.044;9.006;2022-11-02T06:57:44;9.60;99.90
16273;DHT22;8244;50.044;9.006;2022-11-02T07:02:57;9.80;99.90
16273;DHT22;8244;50.044;9.006;2022-11-02T07:07:59;10.00;99.90
16273;DHT22;8244;50.044;9.006;2022-11-02T07:13:01;10.20;99.90
16273;DHT22;8244;50.044;9.006;2022-11-02T07:18:05;10.40;99.90
16273;DHT22;8244;50.044;9.006;2022-11-02T07:23:08;10.50;99.90
16273;DHT22;8244;50.044;9.006;2022-11-02T07:28:10;10.60;99.90
16273;DHT22;8244;50.044;9.006;2022-11-02T07:33:13;10.60;99.90
16273;DHT22;8244;50.044;9.006;2022-11-02T07:38:14;10.60;99.90
16273;DHT22;8244;50.044;9.006;2022-11-02T07:43:16;10.70;99.90
16273;DHT22;8244;50.044;9.006;2022-11-02T07:48:19;10.90;99.90
16273;DHT22;8244;50.044;9.006;2022-11-02T07:53:21;11.70;99.90
16273;DHT22;8244;50.044;9.006;2022-11-02T07:58:23;12.30;99.90
16273;DHT22;8244;50.044;9.006;2022-11-02T08:03:26;13.00;99.90
16273;DHT22;8244;50.044;9.006;2022-11-02T08:08:28;13.30;99.90
16273;DHT22;8244;50.044;9.006;2022-11-02T08:13:29;13.40;99.90
16273;DHT22;8244;50.044;9.006;2022-11-02T08:18:32;13.20;99.90
16273;DHT22;8244;50.044;9.006;2022-11-02T08:23:34;13.10;99.90
16273;DHT22;8244;50.044;9.006;2022-11-02T08:28:36;13.00;99.90
16273;DHT22;8244;50.044;9.006;2022-11-02T08:33:41;12.90;99.90
16273;DHT22;8244;50.044;9.006;2022-11-02T08:38:42;12.90;99.90
16273;DHT22;8244;50.044;9.006;2022-11-02T08:43:44;12.80;99.90
16273;DHT22;8244;50.044;9.006;2022-11-02T08:48:47;12.80;99.90
16273;DHT22;8244;50.044;9.006;2022-11-02T08:53:49;12.80;99.90
16273;DHT22;8244;50.044;9.006;2022-11-02T08:58:51;12.80;99.90
16273;DHT22;8244;50.044;9.006;2022-11-02T09:03:53;12.90;99.90
16273;DHT22;8244;50.044;9.006;2022-11-02T09:08:55;12.90;99.90
16273;DHT22;8244;50.044;9.006;2022-11-02T09:13:57;13.00;99.90
16273;DHT22;8244;50.044;9.006;2022-11-02T09:19:00;13.00;99.90
16273;DHT22;8244;50.044;9.006;2022-11-02T09:24:02;13.10;99.90
16273;DHT22;8244;50.044;9.006;2022-11-02T09:29:04;13.20;99.90
16273;DHT22;8244;50.044;9.006;2022-11-02T09:34:07;13.30;99.90
16273;DHT22;8244;50.044;9.006;2022-11-02T09:39:08;13.50;99.90
16273;DHT22;8244;50.044;9.006;2022-11-02T09:44:13;13.70;99.90
16273;DHT22;8244;50.044;9.006;2022-11-02T09:49:19;14.00;99.90
16273;DHT22;8244;50.044;9.006;2022-11-02T09:54:24;14.10;99.90
16273;DHT22;8244;50.044;9.006;2022-11-02T09:59:28;14.10;99.90
16273;DHT22;8244;50.044;9.006;2022-11-02T10:04:52;14.20;99.90
16273;DHT22;8244;50.044;9.006;2022-11-02T10:09:58;14.50;99.90
16273;DHT22;8244;50.044;9.006;2022-11-02T10:15:03;14.80;99.90
16273;DHT22;8244;50.044;9.006;2022-11-02T10:20:17;15.20;99.90
16273;DHT22;8244;50.044;9.006;2022-11-02T10:25:20;15.40;99.90
16273;DHT22;8244;50.044;9.006;2022-11-02T10:30:22;15.70;99.90
16273;DHT22;8244;50.044;9.006;2022-11-02T10:35:32;15.90;99.90
16273;DHT22;8244;50.044;9.006;2022-11-02T10:40:56;16.00;99.90
16273;DHT22;8244;50.044;9.006;2022-11-02T10:46:16;16.20;99.90
16273;DHT22;8244;50.044;9.006;2022-11-02T10:51:21;16.40;99.90
16273;DHT22;8244;50.044;9.006;2022-11-02T10:56:29;16.60;99.90
16273;DHT22;8244;50.044;9.006;2022-11-02T11:01:31;17.00;99.90
16273;DHT22;8244;50.044;9.006;2022-11-02T11:06:36;16.90;99.90
16273;DHT22;8244;50.044;9.006;2022-11-02T11:11:38;16.70;99.90
16273;DHT22;8244;50.044;9.006;2022-11-02T11:16:42;16.60;99.90
16273;DHT22;8244;50.044;9.006;2022-11-02T11:21:46;16.60;99.90
16273;DHT22;8244;50.044;9.006;2022-11-02T11:26:59;16.70;99.90
16273;DHT22;8244;50.044;9.006;2022-11-02T11:32:02;16.80;99.90
16273;DHT22;8244;50.044;9.006;2022-11-02T11:37:07;16.90;99.50
16273;DHT22;8244;50.044;9.006;2022-11-02T11:42:15;16.90;99.90
16273;DHT22;8244;50.044;9.006;2022-11-02T11:47:26;16.90;99.90
16273;DHT22;8244;50.044;9.006;2022-11-02T11:52:31;17.10;99.90
16273;DHT22;8244;50.044;9.006;2022-11-02T11:57:33;17.40;99.10
16273;DHT22;8244;50.044;9.006;2022-11-02T12:02:35;17.30;98.80
16273;DHT22;8244;50.044;9.006;2022-11-02T12:07:59;17.30;98.90
16273;DHT22;8244;50.044;9.006;2022-11-02T12:13:11;17.20;98.40
16273;DHT22;8244;50.044;9.006;2022-11-02T12:18:32;17.30;99.90
16273;DHT22;8244;50.044;9.006;2022-11-02T12:23:55;17.30;98.50
16273;DHT22;8244;50.044;9.006;2022-11-02T12:29:10;17.00;98.50
16273;DHT22;8244;50.044;9.006;2022-11-02T12:34:25;16.80;99.20
16273;DHT22;8244;50.044;9.006;2022-11-02T12:39:43;16.80;97.80
16273;DHT22;8244;50.044;9.006;2022-11-02T12:44:58;16.70;96.80
16273;DHT22;8244;50.044;9.006;2022-11-02T12:50:09;16.40;96.60
16273;DHT22;8244;50.044;9.006;2022-11-02T12:55:16;16.30;96.40
16273;DHT22;8244;50.044;9.006;2022-11-02T13:00:20;16.20;97.00
16273;DHT22;8244;50.044;9.006;2022-11-02T13:05:26;16.20;96.10
16273;DHT22;8244;50.044;9.006;2022-11-02T13:10:33;16.00;96.10
16273;DHT22;8244;50.044;9.006;2022-11-02T13:15:38;16.00;97.00
16273;DHT22;8244;50.044;9.006;2022-11-02T13:20:42;16.00;97.40
16273;DHT22;8244;50.044;9.006;2022-11-02T13:25:49;15.90;97.80
16273;DHT22;8244;50.044;9.006;2022-11-02T13:30:53;15.80;98.10
16273;DHT22;8244;50.044;9.006;2022-11-02T13:35:55;15.70;97.80
16273;DHT22;8244;50.044;9.006;2022-11-02T13:41:13;15.70;98.40
16273;DHT22;8244;50.044;9.006;2022-11-02T13:46:34;15.60;98.90
16273;DHT22;8244;50.044;9.006;2022-11-02T13:51:42;15.50;97.10
16273;DHT22;8244;50.044;9.006;2022-11-02T13:56:51;15.40;97.20
16273;DHT22;8244;50.044;9.006;2022-11-02T14:01:54;15.30;97.80
16273;DHT22;8244;50.044;9.006;2022-11-02T14:06:59;15.30;98.20
16273;DHT22;8244;50.044;9.006;2022-11-02T14:12:26;15.20;98.60
16273;DHT22;8244;50.044;9.006;2022-11-02T14:17:29;15.10;98.90
16273;DHT22;8244;50.044;9.006;2022-11-02T14:28:32;15.00;99.10
16273;DHT22;8244;50.044;9.006;2022-11-02T14:33:48;15.00;99.50
16273;DHT22;8244;50.044;9.006;2022-11-02T14:38:58;14.90;99.70
16273;DHT22;8244;50.044;9.006;2022-11-02T14:44:31;14.70;99.70
16273;DHT22;8244;50.044;9.006;2022-11-02T14:49:37;14.60;99.90
16273;DHT22;8244;50.044;9.006;2022-11-02T14:54:46;14.60;99.90
16273;DHT22;8244;50.044;9.006;2022-11-02T14:59:53;14.50;99.90
16273;DHT22;8244;50.044;9.006;2022-11-02T15:04:57;14.50;99.90
16273;DHT22;8244;50.044;9.006;2022-11-02T15:10:00;14.40;99.90
16273;DHT22;8244;50.044;9.006;2022-11-02T15:15:37;14.30;99.90
16273;DHT22;8244;50.044;9.006;2022-11-02T15:20:39;14.20;99.90
16273;DHT22;8244;50.044;9.006;2022-11-02T15:25:47;14.10;99.90
16273;DHT22;8244;50.044;9.006;2022-11-02T15:30:52;14.00;99.90
16273;DHT22;8244;50.044;9.006;2022-11-02T15:35:54;13.90;99.90
16273;DHT22;8244;50.044;9.006;2022-11-02T15:41:04;13.70;99.90
16273;DHT22;8244;50.044;9.006;2022-11-02T15:46:18;13.60;99.90
16273;DHT22;8244;50.044;9.006;2022-11-02T15:51:28;13.50;99.90
16273;DHT22;8244;50.044;9.006;2022-11-02T15:56:50;13.20;99.90
16273;DHT22;8244;50.044;9.006;2022-11-02T16:02:11;13.10;99.90
16273;DHT22;8244;50.044;9.006;2022-11-02T16:07:16;12.80;99.90
16273;DHT22;8244;50.044;9.006;2022-11-02T16:12:20;12.60;99.90
16273;DHT22;8244;50.044;9.006;2022-11-02T16:17:25;12.50;99.90
16273;DHT22;8244;50.044;9.006;2022-11-02T16:22:27;12.20;99.90
16273;DHT22;8244;50.044;9.006;2022-11-02T16:27:29;12.00;99.90
16273;DHT22;8244;50.044;9.006;2022-11-02T16:32:32;11.80;99.90
16273;DHT22;8244;50.044;9.006;2022-11-02T16:37:34;11.60;99.90
16273;DHT22;8244;50.044;9.006;2022-11-02T16:42:36;11.40;99.90
16273;DHT22;8244;50.044;9.006;2022-11-02T16:47:40;11.20;99.90
16273;DHT22;8244;50.044;9.006;2022-11-02T16:52:52;11.00;99.90
16273;DHT22;8244;50.044;9.006;2022-11-02T16:57:59;10.90;99.90
16273;DHT22;8244;50.044;9.006;2022-11-02T17:03:12;10.70;99.90
16273;DHT22;8244;50.044;9.006;2022-11-02T17:08:27;10.60;99.90
16273;DHT22;8244;50.044;9.006;2022-11-02T17:13:31;10.50;99.90
16273;DHT22;8244;50.044;9.006;2022-11-02T17:18:37;10.40;99.90
16273;DHT22;8244;50.044;9.006;2022-11-02T17:23:40;10.30;99.90
16273;DHT22;8244;50.044;9.006;2022-11-02T17:28:44;10.10;99.90
16273;DHT22;8244;50.044;9.006;2022-11-02T17:33:47;10.00;99.90
16273;DHT22;8244;50.044;9.006;2022-11-02T17:38:49;9.90;99.90
16273;DHT22;8244;50.044;9.006;2022-11-02T17:43:51;9.80;99.90
16273;DHT22;8244;50.044;9.006;2022-11-02T17:48:54;9.70;99.90
16273;DHT22;8244;50.044;9.006;2022-11-02T17:53:57;9.50;99.90
16273;DHT22;8244;50.044;9.006;2022-11-02T17:58:58;9.40;99.90
16273;DHT22;8244;50.044;9.006;2022-11-02T18:04:01;9.40;99.90
16273;DHT22;8244;50.044;9.006;2022-11-02T18:09:03;9.30;99.90
16273;DHT22;8244;50.044;9.006;2022-11-02T18:14:18;9.30;99.90
16273;DHT22;8244;50.044;9.006;2022-11-02T18:19:21;9.20;99.90
16273;DHT22;8244;50.044;9.006;2022-11-02T18:24:23;9.10;99.90
16273;DHT22;8244;50.044;9.006;2022-11-02T18:29:24;9.00;99.90
16273;DHT22;8244;50.044;9.006;2022-11-02T18:34:27;8.90;99.90
16273;DHT22;8244;50.044;9.006;2022-11-02T18:39:29;8.90;99.90
16273;DHT22;8244;50.044;9.006;2022-11-02T18:44:31;8.90;99.90
16273;DHT22;8244;50.044;9.006;2022-11-02T18:49:34;8.90;99.90
16273;DHT22;8244;50.044;9.006;2022-11-02T18:54:36;8.80;99.90
16273;DHT22;8244;50.044;9.006;2022-11-02T18:59:37;8.80;99.90
16273;DHT22;8244;50.044;9.006;2022-11-02T19:04:41;8.80;99.90
16273;DHT22;8244;50.044;9.006;2022-11-02T19:09:42;8.80;99.90
16273;DHT22;8244;50.044;9.006;2022-11-02T19:14:46;8.70;99.90
16273;DHT22;8244;50.044;9.006;2022-11-02T19:19:50;8.60;99.90
16273;DHT22;8244;50.044;9.006;2022-11-02T19:24:52;8.60;99.90
16273;DHT22;8244;50.044;9.006;2022-11-02T19:29:54;8.50;99.90
16273;DHT22;8244;50.044;9.006;2022-11-02T19:34:57;8.50;99.90
16273;DHT22;8244;50.044;9.006;2022-11-02T19:39:58;8.40;99.90
16273;DHT22;8244;50.044;9.006;2022-11-02T19:45:00;8.30;99.90
16273;DHT22;8244;50.044;9.006;2022-11-02T19:50:04;8.30;99.90
16273;DHT22;8244;50.044;9.006;2022-11-02T19:55:06;8.30;99.90
16273;DHT22;8244;50.044;9.006;2022-11-02T20:00:09;8.30;99.90
16273;DHT22;8244;50.044;9.006;2022-11-02T20:05:13;8.40;99.90
16273;DHT22;8244;50.044;9.006;2022-11-02T20:10:15;8.40;99.90
16273;DHT22;8244;50.044;9.006;2022-11-02T20:15:16;8.30;99.90
16273;DHT22;8244;50.044;9.006;2022-11-02T20:20:19;8.20;99.90
16273;DHT22;8244;50.044;9.006;2022-11-02T20:25:21;8.20;99.90
16273;DHT22;8244;50.044;9.006;2022-11-02T20:30:24;8.20;99.90
16273;DHT22;8244;50.044;9.006;2022-11-02T20:35:28;8.20;99.90
16273;DHT22;8244;50.044;9.006;2022-11-02T20:40:29;8.20;99.90
16273;DHT22;8244;50.044;9.006;2022-11-02T20:45:32;8.20;99.90
16273;DHT22;8244;50.044;9.006;2022-11-02T20:50:35;8.20;99.90
16273;DHT22;8244;50.044;9.006;2022-11-02T20:55:37;8.20;99.90
16273;DHT22;8244;50.044;9.006;2022-11-02T21:00:39;8.20;99.90
16273;DHT22;8244;50.044;9.006;2022-11-02T21:05:42;8.30;99.90
16273;DHT22;8244;50.044;9.006;2022-11-02T21:10:53;8.20;99.90
16273;DHT22;8244;50.044;9.006;2022-11-02T21:15:55;8.10;99.90
16273;DHT22;8244;50.044;9.006;2022-11-02T21:21:03;8.10;99.90
16273;DHT22;8244;50.044;9.006;2022-11-02T21:26:06;8.10;99.90
16273;DHT22;8244;50.044;9.006;2022-11-02T21:31:10;8.10;99.90
16273;DHT22;8244;50.044;9.006;2022-11-02T21:36:16;8.00;99.90
16273;DHT22;8244;50.044;9.006;2022-11-02T21:41:20;8.10;99.90
16273;DHT22;8244;50.044;9.006;2022-11-02T21:46:25;8.10;99.90
16273;DHT22;8244;50.044;9.006;2022-11-02T21:51:29;8.10;99.90
16273;DHT22;8244;50.044;9.006;2022-11-02T21:56:30;8.10;99.90
16273;DHT22;8244;50.044;9.006;2022-11-02T22:01:35;8.20;99.90
16273;DHT22;8244;50.044;9.006;2022-11-02T22:06:47;8.10;99.90
16273;DHT22;8244;50.044;9.006;2022-11-02T22:11:50;8.10;99.90
16273;DHT22;8244;50.044;9.006;2022-11-02T22:17:13;8.10;99.90
16273;DHT22;8244;50.044;9.006;2022-11-02T22:22:16;8.10;99.90
16273;DHT22;8244;50.044;9.006;2022-11-02T22:27:18;8.00;99.90
16273;DHT22;8244;50.044;9.006;2022-11-02T22:32:20;8.00;99.90
16273;DHT22;8244;50.044;9.006;2022-11-02T22:37:23;8.00;99.90
16273;DHT22;8244;50.044;9.006;2022-11-02T22:42:44;7.90;99.90
16273;DHT22;8244;50.044;9.006;2022-11-02T22:47:46;7.90;99.90
16273;DHT22;8244;50.044;9.006;2022-11-02T22:52:49;7.90;99.90
16273;DHT22;8244;50.044;9.006;2022-11-02T22:57:52;7.90;99.90
16273;DHT22;8244;50.044;9.006;2022-11-02T23:02:54;7.90;99.90
16273;DHT22;8244;50.044;9.006;2022-11-02T23:07:57;7.90;99.90
16273;DHT22;8244;50.044;9.006;2022-11-02T23:12:58;7.90;99.90
16273;DHT22;8244;50.044;9.006;2022-11-02T23:18:00;8.00;99.90
16273;DHT22;8244;50.044;9.006;2022-11-02T23:23:03;8.00;99.90
16273;DHT22;8244;50.044;9.006;2022-11-02T23:28:24;8.00;99.90
16273;DHT22;8244;50.044;9.006;2022-11-02T23:33:43;8.00;99.90
16273;DHT22;8244;50.044;9.006;2022-11-02T23:38:47;8.10;99.90
16273;DHT22;8244;50.044;9.006;2022-11-02T23:44:06;8.10;99.90
16273;DHT22;8244;50.044;9.006;2022-11-02T23:49:15;8.10;99.90
16273;DHT22;8244;50.044;9.006;2022-11-02T23:54:19;8.10;99.90
16273;DHT22;8244;50.044;9.006;2022-11-02T23:59:38;8.10;99.90
